Time;durP1;ratioP1;P1;durP2;ratioP2;P2;SDS_P1;SDS_P2;PMS_P1;PMS_P2;Temp;Humidity;BMP_temperature;BMP_pressure;BME280_temperature;BME280_humidity;BME280_pressure;Samples;Min_cycle;Max_cycle;Signal;HPM_P1;HPM_P2
2024/02/24 00:00:49;;;;;;;3.35;2.60;;;5.80;99.90;;;;;;5024448;28;20122;-70
2024/02/24 00:03:16;;;;;;;2.58;1.70;;;5.70;99.90;;;;;;5008610;28;20531;-69
2024/02/24 00:05:45;;;;;;;2.35;1.83;;;5.70;99.90;;;;;;4992034;28;20567;-70
2024/02/24 00:08:12;;;;;;;3.22;2.58;;;5.60;99.90;;;;;;4992326;28;20078;-70
2024/02/24 00:10:39;;;;;;;3.80;2.05;;;5.60;99.90;;;;;;4992127;28;20137;-70
2024/02/24 00:13:07;;;;;;;4.78;2.63;;;5.60;99.90;;;;;;5024791;28;20042;-70
2024/02/24 00:15:35;;;;;;;5.28;2.65;;;5.50;99.90;;;;;;5024855;28;20145;-70
2024/02/24 00:18:03;;;;;;;3.08;1.95;;;5.50;99.90;;;;;;5008356;28;20149;-69
2024/02/24 00:20:30;;;;;;;3.30;2.45;;;5.50;99.90;;;;;;4993370;28;20050;-69
2024/02/24 00:22:58;;;;;;;3.50;2.53;;;5.60;99.90;;;;;;4993250;28;20046;-70
2024/02/24 00:25:25;;;;;;;4.30;3.95;;;5.40;99.90;;;;;;4993370;28;20431;-69
2024/02/24 00:27:52;;;;;;;2.50;1.77;;;5.40;99.90;;;;;;5024426;28;20039;-70
2024/02/24 00:30:19;;;;;;;2.83;1.88;;;5.50;99.90;;;;;;5008205;28;20086;-69
2024/02/24 00:32:46;;;;;;;1.95;1.75;;;5.40;99.90;;;;;;4991305;28;20042;-70
2024/02/24 00:35:15;;;;;;;3.20;2.15;;;5.30;99.90;;;;;;5024778;28;20046;-70
2024/02/24 00:37:42;;;;;;;2.78;2.03;;;5.40;99.90;;;;;;4992922;28;20050;-69
2024/02/24 00:40:10;;;;;;;3.72;2.05;;;5.30;99.90;;;;;;4991980;28;20042;-69
2024/02/24 00:42:37;;;;;;;1.58;1.15;;;5.30;99.90;;;;;;4991775;28;20101;-69
2024/02/24 00:45:04;;;;;;;9.13;2.30;;;5.30;99.90;;;;;;5008151;28;20502;-70
2024/02/24 00:47:32;;;;;;;3.28;2.30;;;5.30;99.90;;;;;;4991793;28;20130;-69
2024/02/24 00:49:59;;;;;;;1.90;1.60;;;5.30;99.90;;;;;;4992876;28;20070;-70
2024/02/24 00:52:26;;;;;;;3.30;2.15;;;5.30;99.90;;;;;;4993055;28;20399;-69
2024/02/24 00:54:53;;;;;;;1.80;1.40;;;5.30;99.90;;;;;;4991612;28;20108;-70
2024/02/24 00:57:20;;;;;;;2.22;1.58;;;5.30;99.90;;;;;;4991838;28;20117;-70
2024/02/24 00:59:47;;;;;;;3.22;2.35;;;5.30;99.90;;;;;;4991593;28;20133;-69
2024/02/24 01:02:14;;;;;;;2.33;2.22;;;5.30;99.90;;;;;;4991699;28;20419;-69
2024/02/24 01:04:41;;;;;;;2.20;1.90;;;5.30;99.90;;;;;;4991554;28;20042;-69
2024/02/24 01:07:10;;;;;;;2.00;1.80;;;5.40;99.90;;;;;;4991779;28;20474;-69
2024/02/24 01:09:37;;;;;;;1.27;1.17;;;5.40;99.90;;;;;;4992959;28;20222;-70
2024/02/24 01:12:04;;;;;;;2.83;1.67;;;5.40;99.90;;;;;;4992731;28;20097;-69
2024/02/24 01:14:32;;;;;;;2.17;1.33;;;5.40;99.90;;;;;;4991453;28;20141;-69
2024/02/24 01:16:59;;;;;;;5.35;2.42;;;5.50;99.90;;;;;;5023982;28;20046;-69
2024/02/24 01:19:26;;;;;;;3.35;1.80;;;5.50;99.90;;;;;;4991652;28;20043;-70
2024/02/24 01:21:53;;;;;;;2.38;1.25;;;5.50;99.90;;;;;;5023810;28;20051;-69
2024/02/24 01:24:23;;;;;;;2.50;1.48;;;5.50;99.90;;;;;;4991521;28;20034;-69
2024/02/24 01:26:50;;;;;;;3.10;1.75;;;5.60;99.90;;;;;;5007548;28;20065;-70
2024/02/24 01:29:17;;;;;;;1.27;1.15;;;5.60;99.90;;;;;;4992447;28;20510;-69
2024/02/24 01:31:44;;;;;;;1.90;1.25;;;5.60;99.90;;;;;;4991450;28;20069;-69
2024/02/24 01:34:11;;;;;;;6.40;2.20;;;5.70;99.90;;;;;;4992715;28;20042;-69
2024/02/24 01:36:38;;;;;;;2.25;1.90;;;5.70;99.90;;;;;;4991359;28;20055;-70
2024/02/24 01:39:05;;;;;;;3.28;2.00;;;5.70;99.90;;;;;;5007526;28;20530;-69
2024/02/24 01:41:32;;;;;;;2.97;2.00;;;5.80;99.90;;;;;;4991485;28;20046;-70
2024/02/24 01:43:59;;;;;;;2.55;1.50;;;5.80;99.90;;;;;;4994230;28;20046;-70
2024/02/24 01:46:26;;;;;;;3.15;1.95;;;5.80;99.90;;;;;;4996293;28;20038;-69
2024/02/24 01:48:53;;;;;;;4.10;2.22;;;5.80;99.90;;;;;;5027570;28;20046;-70
2024/02/24 01:51:20;;;;;;;2.53;2.30;;;5.90;99.90;;;;;;4996237;28;20491;-69
2024/02/24 01:53:48;;;;;;;1.77;1.67;;;5.90;99.90;;;;;;4995863;28;20051;-69
2024/02/24 01:56:15;;;;;;;4.13;1.90;;;5.90;99.90;;;;;;5010909;28;20042;-70
2024/02/24 01:58:42;;;;;;;4.03;1.58;;;5.90;99.90;;;;;;4994825;28;20054;-70
2024/02/24 02:01:10;;;;;;;2.90;2.13;;;6.00;99.90;;;;;;4994497;28;20089;-70
2024/02/24 02:03:37;;;;;;;1.10;1.00;;;6.00;99.90;;;;;;4995783;28;20042;-70
2024/02/24 02:06:05;;;;;;;3.13;1.63;;;6.00;99.90;;;;;;4995696;28;20048;-69
2024/02/24 02:08:32;;;;;;;3.22;2.13;;;6.00;99.90;;;;;;5010739;28;20089;-69
2024/02/24 02:10:59;;;;;;;2.28;1.85;;;6.00;99.90;;;;;;5027060;28;20053;-70
2024/02/24 02:13:26;;;;;;;2.35;1.90;;;6.00;99.90;;;;;;4995754;28;20547;-69
2024/02/24 02:15:55;;;;;;;2.38;2.17;;;6.00;99.90;;;;;;4994260;28;20051;-69
2024/02/24 02:18:22;;;;;;;1.30;1.13;;;5.90;99.90;;;;;;4995455;28;20056;-69
2024/02/24 02:20:51;;;;;;;1.63;1.35;;;5.90;99.90;;;;;;4994468;28;20121;-70
2024/02/24 02:23:19;;;;;;;3.22;2.10;;;6.00;99.90;;;;;;4995482;28;20088;-69
2024/02/24 02:25:46;;;;;;;2.65;1.30;;;5.80;99.90;;;;;;5010582;28;20089;-69
2024/02/24 02:28:13;;;;;;;2.25;1.50;;;5.70;99.90;;;;;;4994094;28;20042;-69
2024/02/24 02:30:40;;;;;;;4.55;2.10;;;5.70;99.90;;;;;;4994035;28;20113;-69
2024/02/24 02:33:08;;;;;;;2.42;2.20;;;5.60;99.90;;;;;;4995125;28;20177;-69
2024/02/24 02:35:36;;;;;;;3.47;1.63;;;5.60;99.90;;;;;;4994117;28;20081;-69
2024/02/24 02:38:07;;;;;;;1.63;1.52;;;5.60;99.90;;;;;;4995055;28;20050;-69
2024/02/24 02:40:35;;;;;;;2.25;1.00;;;5.50;99.90;;;;;;4994134;28;20064;-70
2024/02/24 02:43:02;;;;;;;2.10;1.00;;;5.50;99.90;;;;;;5009821;28;20546;-70
2024/02/24 02:45:29;;;;;;;2.60;2.20;;;5.50;99.90;;;;;;4993830;28;20137;-70
2024/02/24 02:47:56;;;;;;;3.95;2.15;;;5.40;99.90;;;;;;5009987;28;20081;-69
2024/02/24 02:50:23;;;;;;;3.20;1.52;;;5.30;99.90;;;;;;5010020;28;20034;-69
2024/02/24 02:52:50;;;;;;;1.38;1.02;;;5.30;99.90;;;;;;5009873;28;20519;-69
2024/02/24 02:55:17;;;;;;;1.20;1.02;;;5.20;99.90;;;;;;4994299;28;20073;-69
2024/02/24 02:57:45;;;;;;;1.90;1.80;;;5.10;99.90;;;;;;5026387;28;20411;-69
2024/02/24 03:00:12;;;;;;;1.60;1.33;;;5.10;99.90;;;;;;5026050;28;20499;-70
2024/02/24 03:02:39;;;;;;;1.80;1.45;;;5.10;99.90;;;;;;4993534;28;20053;-70
2024/02/24 03:05:07;;;;;;;2.42;1.65;;;5.00;99.90;;;;;;4993393;28;20125;-70
2024/02/24 03:07:34;;;;;;;1.40;1.08;;;5.00;99.90;;;;;;4993498;28;20047;-69
2024/02/24 03:10:02;;;;;;;1.33;0.75;;;5.00;99.90;;;;;;4993288;28;20097;-69
2024/02/24 03:12:29;;;;;;;1.35;1.25;;;4.90;99.90;;;;;;4993346;28;20046;-69
2024/02/24 03:14:57;;;;;;;3.97;1.63;;;4.90;99.90;;;;;;4993318;28;20492;-69
2024/02/24 03:17:24;;;;;;;3.83;1.23;;;4.90;99.90;;;;;;4994542;28;20048;-69
2024/02/24 03:19:51;;;;;;;1.95;1.48;;;4.90;99.90;;;;;;4993122;28;20145;-69
2024/02/24 03:22:18;;;;;;;3.17;2.95;;;4.80;99.90;;;;;;4993124;28;20576;-69
2024/02/24 03:24:45;;;;;;;0.73;0.73;;;4.80;99.90;;;;;;4994313;28;20034;-69
2024/02/24 03:27:12;;;;;;;1.30;1.20;;;4.80;99.90;;;;;;4992954;28;20045;-69
2024/02/24 03:29:39;;;;;;;2.38;1.50;;;4.80;99.90;;;;;;5025663;28;20046;-70
2024/02/24 03:32:06;;;;;;;1.58;1.48;;;4.70;99.90;;;;;;4991482;28;20065;-69
2024/02/24 03:34:34;;;;;;;4.10;2.15;;;4.70;99.90;;;;;;4993961;28;20053;-69
2024/02/24 03:37:01;;;;;;;1.85;1.67;;;4.70;99.90;;;;;;4994376;28;20046;-69
2024/02/24 03:39:28;;;;;;;1.48;0.93;;;4.70;99.90;;;;;;4992830;28;20081;-69
2024/02/24 03:41:54;;;;;;;2.40;1.52;;;4.70;99.90;;;;;;5024779;28;20050;-69
2024/02/24 03:44:21;;;;;;;2.42;2.22;;;4.80;99.90;;;;;;5025156;28;20984;-69
2024/02/24 03:46:48;;;;;;;2.63;1.65;;;4.70;99.90;;;;;;4992654;28;20080;-69
2024/02/24 03:49:15;;;;;;;3.17;2.97;;;4.70;99.90;;;;;;4992485;28;20459;-69
2024/02/24 03:51:43;;;;;;;1.75;1.63;;;4.70;99.90;;;;;;4993947;28;20064;-69
2024/02/24 03:54:10;;;;;;;1.95;1.83;;;4.60;99.90;;;;;;4993651;28;20092;-69
2024/02/24 03:56:37;;;;;;;4.15;2.05;;;4.60;99.90;;;;;;5025276;28;20038;-69
2024/02/24 03:59:04;;;;;;;2.13;1.70;;;4.50;99.90;;;;;;4992219;28;20112;-69
2024/02/24 04:01:31;;;;;;;3.20;2.00;;;4.60;99.90;;;;;;4990924;28;20068;-69
2024/02/24 04:03:58;;;;;;;3.65;2.75;;;4.50;99.90;;;;;;4993401;28;20039;-70
2024/02/24 04:06:25;;;;;;;1.55;1.10;;;4.50;99.90;;;;;;4990758;28;20035;-69
2024/02/24 04:08:52;;;;;;;4.80;1.70;;;4.50;99.90;;;;;;4992227;28;20113;-69
2024/02/24 04:11:20;;;;;;;1.98;1.63;;;4.40;99.90;;;;;;4993413;28;20042;-69
2024/02/24 04:13:47;;;;;;;3.45;3.25;;;4.50;99.90;;;;;;4993612;28;20436;-69
2024/02/24 04:16:14;;;;;;;3.58;2.63;;;4.50;99.90;;;;;;4992110;28;20065;-70
2024/02/24 04:18:41;;;;;;;2.10;1.73;;;4.60;99.90;;;;;;4993541;28;20073;-70
2024/02/24 04:21:08;;;;;;;2.33;1.90;;;4.60;99.90;;;;;;4993262;28;20097;-70
2024/02/24 04:23:35;;;;;;;1.67;1.58;;;4.50;99.90;;;;;;4993396;28;20088;-69
2024/02/24 04:26:02;;;;;;;2.05;1.30;;;4.50;99.90;;;;;;4992267;28;20043;-69
2024/02/24 04:28:29;;;;;;;2.75;2.58;;;4.50;99.90;;;;;;4992888;28;20373;-70
2024/02/24 04:30:56;;;;;;;2.55;2.20;;;4.50;99.90;;;;;;4993134;28;20085;-69
2024/02/24 04:33:22;;;;;;;0.80;0.75;;;4.50;99.90;;;;;;4991898;28;20074;-69
2024/02/24 04:35:50;;;;;;;8.60;1.70;;;4.50;99.90;;;;;;4975998;28;20074;-70
2024/02/24 04:38:17;;;;;;;5.65;2.45;;;4.50;99.90;;;;;;5008074;28;20046;-69
2024/02/24 04:40:44;;;;;;;3.90;2.28;;;4.50;99.90;;;;;;4975895;28;20053;-69
2024/02/24 04:43:11;;;;;;;3.72;3.42;;;4.50;99.90;;;;;;4992866;28;20446;-69
2024/02/24 04:45:38;;;;;;;4.15;2.53;;;4.50;99.90;;;;;;4993153;28;20489;-69
2024/02/24 04:48:05;;;;;;;1.48;1.38;;;4.40;99.90;;;;;;4975848;28;20120;-69
2024/02/24 04:50:32;;;;;;;4.50;2.35;;;4.30;99.90;;;;;;4991750;28;20042;-69
2024/02/24 04:52:59;;;;;;;3.13;2.20;;;4.30;99.90;;;;;;4991880;28;20050;-69
2024/02/24 04:55:26;;;;;;;6.55;3.95;;;4.20;99.90;;;;;;4975585;28;20459;-69
2024/02/24 04:57:53;;;;;;;1.77;1.63;;;4.20;99.90;;;;;;4991714;28;20101;-70
2024/02/24 05:00:20;;;;;;;2.33;1.85;;;4.20;99.90;;;;;;4991703;28;20038;-69
2024/02/24 05:02:49;;;;;;;3.00;1.95;;;4.20;99.90;;;;;;5008088;28;20038;-70
2024/02/24 05:05:16;;;;;;;3.83;2.42;;;4.20;99.90;;;;;;5007781;28;20129;-69
2024/02/24 05:07:43;;;;;;;3.03;2.80;;;4.20;99.90;;;;;;4992838;28;20402;-69
2024/02/24 05:10:10;;;;;;;3.75;2.42;;;4.20;99.90;;;;;;4991743;28;20039;-69
2024/02/24 05:12:37;;;;;;;2.80;1.95;;;4.20;99.90;;;;;;4975295;28;20105;-69
2024/02/24 05:15:04;;;;;;;3.75;2.33;;;4.40;99.90;;;;;;4992855;28;20046;-69
2024/02/24 05:17:31;;;;;;;2.78;1.83;;;4.20;99.90;;;;;;4991426;28;20042;-69
2024/02/24 05:19:59;;;;;;;4.45;2.70;;;4.20;99.90;;;;;;4979134;28;20161;-69
2024/02/24 05:22:26;;;;;;;2.80;2.60;;;4.20;99.90;;;;;;4996486;28;20132;-69
2024/02/24 05:24:53;;;;;;;4.55;2.85;;;4.20;99.90;;;;;;4995247;28;20039;-69
2024/02/24 05:27:20;;;;;;;2.90;2.58;;;4.20;99.90;;;;;;5011438;28;20046;-69
2024/02/24 05:29:47;;;;;;;3.80;2.38;;;4.20;99.90;;;;;;4996335;28;20065;-69
2024/02/24 05:32:16;;;;;;;3.97;3.67;;;4.20;99.90;;;;;;4979299;28;20042;-69
2024/02/24 05:34:43;;;;;;;3.28;2.67;;;4.30;99.90;;;;;;4995230;28;20050;-69
2024/02/24 05:37:11;;;;;;;3.55;3.25;;;4.20;99.90;;;;;;4995174;28;20153;-69
2024/02/24 05:39:38;;;;;;;3.28;2.17;;;4.20;99.90;;;;;;4996079;28;20050;-69
2024/02/24 05:42:06;;;;;;;7.72;2.90;;;4.30;99.90;;;;;;4996366;28;20130;-69
2024/02/24 05:44:33;;;;;;;4.65;2.70;;;4.30;99.90;;;;;;4996012;28;20076;-69
2024/02/24 05:47:00;;;;;;;4.90;3.15;;;4.30;99.90;;;;;;5011090;28;20487;-69
2024/02/24 05:49:27;;;;;;;4.68;3.97;;;4.40;99.90;;;;;;4994708;28;20125;-70
2024/02/24 05:51:54;;;;;;;2.85;2.65;;;4.50;99.90;;;;;;4996038;28;20085;-70
2024/02/24 05:54:23;;;;;;;4.55;3.47;;;4.60;99.90;;;;;;4994526;28;20057;-70
2024/02/24 05:56:50;;;;;;;4.30;3.20;;;4.60;99.90;;;;;;5011058;28;20053;-70
2024/02/24 05:59:18;;;;;;;4.35;3.90;;;4.70;99.90;;;;;;4994746;28;20046;-69
2024/02/24 06:01:45;;;;;;;4.40;2.90;;;4.70;99.90;;;;;;4974964;28;20138;-69
2024/02/24 06:04:18;;;;;;;2.15;2.00;;;4.80;99.90;;;;;;4995621;28;20050;-70
2024/02/24 06:06:47;;;;;;;3.65;2.45;;;4.90;99.90;;;;;;4993335;28;20038;-69
2024/02/24 06:09:15;;;;;;;2.72;2.50;;;5.00;99.90;;;;;;4996021;28;20041;-70
2024/02/24 06:11:42;;;;;;;5.53;5.07;;;5.00;99.90;;;;;;4994390;28;20449;-69
2024/02/24 06:14:09;;;;;;;4.55;3.95;;;5.00;99.90;;;;;;4995686;28;20538;-70
2024/02/24 06:16:36;;;;;;;4.03;3.70;;;5.00;99.90;;;;;;4994263;28;20050;-69
2024/02/24 06:19:03;;;;;;;3.95;3.58;;;5.00;99.90;;;;;;4995584;28;20046;-70
2024/02/24 06:21:31;;;;;;;4.07;3.78;;;4.90;99.90;;;;;;4995370;28;20373;-69
2024/02/24 06:23:58;;;;;;;5.45;5.05;;;4.80;99.90;;;;;;4994216;28;20443;-69
2024/02/24 06:26:25;;;;;;;4.50;4.15;;;4.80;99.90;;;;;;4994116;28;20043;-69
2024/02/24 06:28:55;;;;;;;4.13;3.47;;;4.80;99.90;;;;;;4994077;28;20043;-69
2024/02/24 06:31:22;;;;;;;3.90;3.15;;;4.80;99.90;;;;;;4994270;28;20073;-69
2024/02/24 06:33:49;;;;;;;1.92;1.58;;;4.70;99.90;;;;;;4993861;28;20050;-69
2024/02/24 06:36:16;;;;;;;8.07;5.13;;;4.70;99.90;;;;;;4995321;28;20121;-70
2024/02/24 06:38:43;;;;;;;5.70;4.13;;;4.60;99.90;;;;;;5010146;28;20062;-69
2024/02/24 06:41:10;;;;;;;5.40;4.90;;;4.60;99.90;;;;;;5010237;28;20054;-70
2024/02/24 06:43:37;;;;;;;3.80;2.50;;;4.50;99.90;;;;;;5009869;28;20062;-69
2024/02/24 06:46:04;;;;;;;10.07;7.75;;;4.40;99.90;;;;;;4995193;28;20471;-69
2024/02/24 06:48:31;;;;;;;9.48;6.38;;;4.50;99.90;;;;;;4977501;28;20058;-69
2024/02/24 06:50:58;;;;;;;6.47;5.78;;;4.40;99.90;;;;;;5010116;28;20050;-70
2024/02/24 06:53:25;;;;;;;5.68;5.10;;;4.50;99.90;;;;;;4995068;28;20035;-70
2024/02/24 06:55:52;;;;;;;5.82;5.22;;;4.50;99.90;;;;;;4993524;28;20049;-69
2024/02/24 06:58:19;;;;;;;7.10;6.40;;;4.60;99.90;;;;;;5009943;28;20069;-69
2024/02/24 07:00:46;;;;;;;8.02;6.65;;;4.60;99.90;;;;;;4993478;28;20153;-69
2024/02/24 07:03:14;;;;;;;8.35;6.72;;;4.80;99.90;;;;;;5009697;28;20045;-69
2024/02/24 07:05:42;;;;;;;7.68;6.95;;;4.80;99.90;;;;;;4994431;28;20047;-69
2024/02/24 07:08:09;;;;;;;2.72;2.53;;;4.80;99.90;;;;;;5009540;28;20044;-69
2024/02/24 07:10:36;;;;;;;6.10;5.32;;;4.90;99.90;;;;;;4994383;28;20128;-70
2024/02/24 07:13:03;;;;;;;6.03;4.60;;;4.90;99.90;;;;;;5009612;28;20096;-69
2024/02/24 07:15:30;;;;;;;4.85;4.40;;;4.90;99.90;;;;;;4994406;28;20070;-69
2024/02/24 07:17:57;;;;;;;5.05;4.50;;;5.00;99.90;;;;;;4994446;28;20046;-69
2024/02/24 07:20:24;;;;;;;6.50;5.35;;;5.00;99.90;;;;;;4994444;28;20056;-69
2024/02/24 07:22:51;;;;;;;6.95;5.55;;;5.10;99.90;;;;;;5009159;28;20510;-69
2024/02/24 07:25:18;;;;;;;7.05;6.32;;;5.10;99.90;;;;;;4993006;28;20145;-69
2024/02/24 07:27:45;;;;;;;7.05;4.78;;;5.10;99.90;;;;;;4992940;28;20471;-70
2024/02/24 07:30:12;;;;;;;8.55;6.47;;;5.20;99.90;;;;;;4992816;28;20511;-69
2024/02/24 07:32:39;;;;;;;7.57;6.88;;;5.20;99.90;;;;;;4992853;28;20075;-69
2024/02/24 07:35:08;;;;;;;10.02;9.13;;;5.20;99.90;;;;;;4993010;28;20455;-69
2024/02/24 07:37:35;;;;;;;4.38;3.20;;;5.30;99.90;;;;;;4992896;28;20051;-69
2024/02/24 07:40:02;;;;;;;6.32;5.65;;;5.40;99.90;;;;;;4994113;28;20291;-69
2024/02/24 07:42:30;;;;;;;5.90;5.30;;;5.40;99.90;;;;;;4992621;28;20089;-69
2024/02/24 07:44:57;;;;;;;4.80;4.07;;;5.50;99.90;;;;;;4993603;28;20058;-69
2024/02/24 07:47:24;;;;;;;7.35;5.63;;;5.60;99.90;;;;;;5008921;28;20050;-69
2024/02/24 07:49:51;;;;;;;8.02;7.30;;;5.60;99.90;;;;;;4993649;28;20443;-70
2024/02/24 07:52:18;;;;;;;5.70;4.80;;;5.70;99.90;;;;;;4992632;28;20042;-70
2024/02/24 07:54:45;;;;;;;7.40;4.97;;;5.70;99.90;;;;;;4993581;28;20507;-69
2024/02/24 07:57:12;;;;;;;7.80;7.00;;;5.70;99.90;;;;;;4992417;28;20046;-69
2024/02/24 07:59:39;;;;;;;3.03;2.78;;;5.70;99.90;;;;;;4976276;28;20070;-69
2024/02/24 08:02:06;;;;;;;6.03;4.80;;;5.80;99.90;;;;;;4993629;28;20046;-69
2024/02/24 08:04:33;;;;;;;8.85;8.05;;;5.80;99.90;;;;;;4993504;28;20454;-69
2024/02/24 08:07:00;;;;;;;5.35;4.32;;;6.00;99.90;;;;;;4993426;28;20098;-69
2024/02/24 08:09:27;;;;;;;4.32;3.83;;;5.80;99.90;;;;;;4992405;28;20042;-69
2024/02/24 08:11:54;;;;;;;4.50;4.28;;;5.90;99.90;;;;;;5008314;28;20432;-70
2024/02/24 08:14:21;;;;;;;6.45;5.85;;;5.90;99.90;;;;;;4993531;28;20431;-69
2024/02/24 08:16:48;;;;;;;6.32;5.70;;;5.90;99.90;;;;;;4992088;28;20137;-70
2024/02/24 08:19:15;;;;;;;4.63;4.20;;;6.00;99.90;;;;;;4993407;28;20050;-70
2024/02/24 08:21:42;;;;;;;6.30;5.70;;;6.10;99.90;;;;;;4992099;28;20120;-69
2024/02/24 08:24:09;;;;;;;5.90;4.03;;;6.10;99.90;;;;;;4991989;28;20046;-69
2024/02/24 08:26:39;;;;;;;5.30;4.80;;;6.10;99.90;;;;;;4992064;28;20038;-69
2024/02/24 08:29:07;;;;;;;6.22;5.65;;;6.10;99.90;;;;;;4992361;28;20406;-69
2024/02/24 08:31:35;;;;;;;4.07;3.67;;;6.20;99.90;;;;;;4993175;28;20035;-69
2024/02/24 08:34:02;;;;;;;6.38;5.70;;;6.20;99.90;;;;;;4992944;28;20100;-70
2024/02/24 08:36:30;;;;;;;10.65;3.70;;;6.30;99.90;;;;;;4992011;28;20505;-69
2024/02/24 08:38:58;;;;;;;4.93;3.65;;;6.40;99.90;;;;;;4991558;28;20043;-70
2024/02/24 08:41:26;;;;;;;3.70;3.33;;;6.50;99.90;;;;;;4993026;28;20117;-70
2024/02/24 08:43:53;;;;;;;5.90;5.38;;;6.50;99.90;;;;;;4992887;28;20065;-69
2024/02/24 08:46:20;;;;;;;4.10;3.70;;;6.60;99.90;;;;;;4993040;28;20046;-69
2024/02/24 08:48:47;;;;;;;7.68;5.82;;;6.70;99.90;;;;;;4991749;28;20065;-69
2024/02/24 08:51:14;;;;;;;6.43;3.55;;;6.60;99.90;;;;;;4993100;28;20528;-69
2024/02/24 08:53:42;;;;;;;3.50;3.20;;;6.70;99.90;;;;;;4991180;28;20554;-70
2024/02/24 08:56:09;;;;;;;8.18;7.38;;;6.70;99.90;;;;;;4992806;28;20410;-69
2024/02/24 08:58:36;;;;;;;6.13;5.47;;;6.80;99.90;;;;;;4991844;28;20403;-69
2024/02/24 09:01:03;;;;;;;5.63;3.83;;;6.90;99.90;;;;;;4991307;28;20164;-69
2024/02/24 09:03:30;;;;;;;6.40;4.30;;;7.00;99.90;;;;;;4991567;28;20492;-69
2024/02/24 09:05:58;;;;;;;5.75;5.10;;;7.10;99.90;;;;;;4991209;28;20042;-70
2024/02/24 09:08:25;;;;;;;7.50;6.90;;;7.10;99.90;;;;;;4991469;28;20384;-70
2024/02/24 09:10:52;;;;;;;5.70;4.70;;;7.30;99.90;;;;;;4975220;28;20054;-69
2024/02/24 09:13:19;;;;;;;5.80;5.10;;;7.40;99.90;;;;;;4991613;28;20038;-69
2024/02/24 09:15:46;;;;;;;5.70;5.10;;;7.60;99.90;;;;;;4992740;28;20483;-69
2024/02/24 09:18:13;;;;;;;5.72;4.90;;;7.70;99.90;;;;;;4991238;28;20050;-70
2024/02/24 09:20:40;;;;;;;4.78;4.13;;;7.80;99.90;;;;;;4991350;28;20054;-69
2024/02/24 09:23:07;;;;;;;6.03;5.43;;;7.90;99.90;;;;;;4992760;28;20038;-69
2024/02/24 09:25:34;;;;;;;3.92;3.60;;;8.00;99.90;;;;;;5007754;28;20052;-70
2024/02/24 09:28:02;;;;;;;5.93;4.07;;;7.90;99.90;;;;;;4992524;28;20097;-70
2024/02/24 09:30:29;;;;;;;6.75;6.15;;;7.90;99.90;;;;;;4990396;28;20058;-70
2024/02/24 09:32:56;;;;;;;5.13;4.15;;;7.90;99.90;;;;;;5007594;28;20092;-70
2024/02/24 09:35:26;;;;;;;5.50;4.85;;;8.00;99.90;;;;;;4974502;28;20049;-70
2024/02/24 09:37:53;;;;;;;5.65;5.18;;;8.10;99.90;;;;;;4990545;28;20404;-70
2024/02/24 09:40:20;;;;;;;5.10;4.60;;;8.30;99.90;;;;;;4991657;28;20053;-70
2024/02/24 09:42:47;;;;;;;6.55;5.38;;;8.30;99.90;;;;;;4990365;28;20046;-70
2024/02/24 09:45:15;;;;;;;4.93;3.75;;;8.40;99.90;;;;;;4991519;28;20128;-69
2024/02/24 09:47:44;;;;;;;5.15;4.40;;;8.70;99.90;;;;;;4974343;28;20050;-69
2024/02/24 09:50:11;;;;;;;9.80;4.43;;;8.60;99.90;;;;;;4990860;28;20081;-69
2024/02/24 09:52:39;;;;;;;5.18;4.78;;;8.70;99.90;;;;;;4991340;28;20042;-69
2024/02/24 09:55:07;;;;;;;5.82;5.25;;;8.80;99.90;;;;;;5007616;28;20495;-75
2024/02/24 09:57:38;;;;;;;8.30;7.18;;;8.90;99.90;;;;;;4992258;28;20053;-74
2024/02/24 10:00:05;;;;;;;4.70;4.28;;;8.80;99.90;;;;;;5007203;28;20062;-76
2024/02/24 10:02:41;;;;;;;6.00;4.07;;;8.90;99.90;;;;;;4991781;28;20042;-76
2024/02/24 10:05:08;;;;;;;6.53;5.65;;;8.90;99.90;;;;;;4992189;28;20043;-76
2024/02/24 10:07:36;;;;;;;6.88;6.18;;;9.00;99.90;;;;;;4978299;28;20412;-76
2024/02/24 10:10:03;;;;;;;7.28;6.05;;;9.00;99.90;;;;;;4994403;28;20050;-76
2024/02/24 10:12:30;;;;;;;6.22;5.38;;;9.00;99.90;;;;;;4978579;28;20051;-76
2024/02/24 10:14:58;;;;;;;4.80;4.35;;;8.90;99.90;;;;;;4994751;28;20038;-76
2024/02/24 10:17:29;;;;;;;5.93;4.53;;;8.80;99.90;;;;;;4978436;28;20054;-76
2024/02/24 10:19:57;;;;;;;;;;;8.70;99.90;;;;;;4994884;28;20042;-76
2024/02/24 10:22:25;;;;;;;5.43;4.63;;;8.60;99.90;;;;;;4994303;28;19921;-76
2024/02/24 10:24:52;;;;;;;4.95;4.45;;;8.60;99.90;;;;;;4995468;28;20054;-76
2024/02/24 10:27:19;;;;;;;4.53;4.07;;;8.50;99.90;;;;;;4977904;28;20054;-76
2024/02/24 10:29:50;;;;;;;6.32;5.72;;;8.60;99.90;;;;;;4977996;28;20046;-76
2024/02/24 10:32:20;;;;;;;5.38;4.90;;;8.70;99.90;;;;;;4995270;28;20038;-76
2024/02/24 10:34:48;;;;;;;4.88;4.47;;;8.80;99.90;;;;;;4994425;28;20058;-76
2024/02/24 10:37:16;;;;;;;8.55;7.75;;;8.70;99.90;;;;;;4995186;28;20049;-76
2024/02/24 10:39:44;;;;;;;7.95;7.15;;;8.70;99.90;;;;;;4977841;28;20043;-76
2024/02/24 10:42:11;;;;;;;6.72;3.30;;;8.50;99.90;;;;;;4993813;28;20042;-76
2024/02/24 10:44:40;;;;;;;7.40;4.85;;;8.40;99.90;;;;;;4977877;28;20050;-76
2024/02/24 10:47:07;;;;;;;5.93;4.72;;;8.40;99.90;;;;;;4993813;28;20034;-76
2024/02/24 10:49:34;;;;;;;6.28;5.68;;;8.40;99.90;;;;;;4994126;28;20407;-76
2024/02/24 10:52:02;;;;;;;5.45;4.60;;;8.60;99.90;;;;;;5009594;28;20495;-76
2024/02/24 10:54:34;;;;;;;5.07;4.72;;;8.80;99.90;;;;;;4993119;28;20396;-77
2024/02/24 10:57:02;;;;;;;5.13;4.63;;;8.90;99.90;;;;;;4993730;28;20065;-75
2024/02/24 10:59:30;;;;;;;5.07;4.15;;;9.00;99.90;;;;;;4993574;28;20065;-75
2024/02/24 11:02:02;;;;;;;5.50;4.43;;;9.00;99.90;;;;;;5010469;28;20050;-75
2024/02/24 11:04:34;;;;;;;5.47;4.28;;;9.00;99.90;;;;;;5010043;28;20589;-75
2024/02/24 11:07:01;;;;;;;4.82;3.65;;;9.00;99.90;;;;;;5010437;28;20053;-75
2024/02/24 11:09:39;;;;;;;5.45;5.00;;;9.30;99.90;;;;;;4993263;28;20057;-75
2024/02/24 11:12:11;;;;;;;6.22;5.05;;;9.60;99.90;;;;;;4993444;28;20065;-75
2024/02/24 11:14:43;;;;;;;5.53;4.65;;;10.00;99.90;;;;;;4994608;28;20042;-75
2024/02/24 11:17:10;;;;;;;3.83;3.42;;;10.30;99.90;;;;;;4994036;28;20100;-75
2024/02/24 11:19:46;;;;;;;2.83;2.63;;;10.30;99.90;;;;;;4993489;28;20062;-75
2024/02/24 11:22:29;;;;;;;3.90;3.55;;;10.30;99.90;;;;;;4994398;28;20458;-75
2024/02/24 11:25:03;;;;;;;;;;;10.20;99.90;;;;;;4993810;28;20050;-75
2024/02/24 11:27:32;;;;;;;4.38;3.17;;;10.10;99.90;;;;;;4994374;28;19928;-75
2024/02/24 11:30:19;;;;;;;4.68;4.13;;;10.10;99.90;;;;;;4993187;28;20066;-74
2024/02/24 11:32:46;;;;;;;4.78;3.28;;;10.20;99.90;;;;;;5009261;28;20057;-75
2024/02/24 11:35:13;;;;;;;3.92;3.08;;;10.30;99.90;;;;;;5009402;28;20057;-75
2024/02/24 11:37:41;;;;;;;3.20;2.05;;;10.30;99.90;;;;;;4992993;28;20043;-75
2024/02/24 11:40:09;;;;;;;3.72;3.42;;;10.30;99.90;;;;;;4993046;28;20069;-75
2024/02/24 11:42:37;;;;;;;4.55;4.10;;;10.30;99.90;;;;;;4992892;28;20054;-75
2024/02/24 11:45:06;;;;;;;3.83;3.40;;;10.20;99.90;;;;;;4992736;28;20137;-74
2024/02/24 11:47:35;;;;;;;2.75;2.22;;;10.10;99.70;;;;;;4993896;28;20096;-74
2024/02/24 11:50:02;;;;;;;4.38;4.03;;;10.00;99.80;;;;;;4993982;28;20136;-74
2024/02/24 11:52:29;;;;;;;3.90;3.42;;;9.90;99.70;;;;;;4992548;28;20113;-75
2024/02/24 11:54:56;;;;;;;2.60;2.35;;;9.90;99.80;;;;;;4993848;28;20034;-75
2024/02/24 11:57:24;;;;;;;3.17;2.88;;;10.30;99.90;;;;;;4993641;28;20050;-75
2024/02/24 11:59:51;;;;;;;2.78;2.17;;;10.50;99.60;;;;;;4976512;28;20043;-75
2024/02/24 12:02:18;;;;;;;6.05;5.43;;;10.80;99.70;;;;;;4992580;28;20396;-75
2024/02/24 12:04:45;;;;;;;2.63;2.03;;;11.20;97.70;;;;;;4992673;28;20044;-75
2024/02/24 12:07:12;;;;;;;3.95;3.63;;;11.30;97.10;;;;;;4992500;28;20440;-74
2024/02/24 12:09:39;;;;;;;3.13;2.83;;;11.10;97.00;;;;;;4993600;28;20489;-75
2024/02/24 12:12:07;;;;;;;3.42;2.38;;;11.00;97.00;;;;;;5008723;28;20039;-75
2024/02/24 12:14:35;;;;;;;2.10;1.92;;;10.70;96.80;;;;;;4992147;28;20487;-75
2024/02/24 12:17:03;;;;;;;3.58;2.60;;;10.50;97.20;;;;;;4993501;28;20074;-75
2024/02/24 12:19:35;;;;;;;2.10;1.90;;;10.80;96.80;;;;;;4992068;28;20101;-75
2024/02/24 12:22:07;;;;;;;3.65;2.45;;;11.60;95.70;;;;;;4993450;28;20042;-75
2024/02/24 12:24:34;;;;;;;2.70;2.28;;;11.90;94.00;;;;;;4993212;28;20054;-75
2024/02/24 12:27:02;;;;;;;2.90;2.42;;;11.80;94.20;;;;;;4993211;28;20038;-75
2024/02/24 12:29:29;;;;;;;2.70;2.20;;;12.00;94.60;;;;;;4992366;28;20480;-74
2024/02/24 12:31:57;;;;;;;2.70;1.95;;;12.00;94.10;;;;;;4993337;28;20050;-74
2024/02/24 12:34:24;;;;;;;2.92;2.10;;;11.70;93.50;;;;;;4993100;28;20046;-74
2024/02/24 12:36:58;;;;;;;2.53;2.33;;;11.10;94.30;;;;;;4992046;28;20073;-74
2024/02/24 12:39:25;;;;;;;3.25;2.47;;;10.60;94.90;;;;;;4991808;28;20050;-75
2024/02/24 12:41:52;;;;;;;2.58;1.92;;;10.10;95.30;;;;;;4993255;28;20070;-74
2024/02/24 12:44:19;;;;;;;2.13;1.83;;;9.80;96.40;;;;;;4993187;28;20046;-74
2024/02/24 12:46:46;;;;;;;3.08;2.78;;;9.40;97.40;;;;;;4991911;28;20042;-74
2024/02/24 12:49:13;;;;;;;3.05;2.75;;;8.90;99.70;;;;;;5008198;28;20496;-75
2024/02/24 12:51:49;;;;;;;6.13;3.30;;;7.90;99.90;;;;;;4975709;28;20395;-75
2024/02/24 12:54:16;;;;;;;3.53;1.98;;;7.10;99.90;;;;;;4993158;28;20034;-74
2024/02/24 12:56:43;;;;;;;3.25;2.95;;;6.60;99.90;;;;;;4991593;28;20047;-74